sensor_id;sensor_type;location;lat;lon;timestamp;P1;durP1;ratioP1;P2;durP2;ratioP2
870;SDS011;422;51.280;7.236;2023-05-24T00:00:06;8.37;;;4.57;;
870;SDS011;422;51.280;7.236;2023-05-24T00:02:36;10.40;;;4.47;;
870;SDS011;422;51.280;7.236;2023-05-24T00:05:06;10.00;;;4.40;;
870;SDS011;422;51.280;7.236;2023-05-24T00:07:36;9.07;;;3.90;;
870;SDS011;422;51.280;7.236;2023-05-24T00:10:03;10.33;;;4.23;;
870;SDS011;422;51.280;7.236;2023-05-24T00:12:31;9.63;;;4.03;;
870;SDS011;422;51.280;7.236;2023-05-24T00:14:59;11.50;;;4.37;;
870;SDS011;422;51.280;7.236;2023-05-24T00:17:26;7.17;;;4.40;;
870;SDS011;422;51.280;7.236;2023-05-24T00:19:54;10.60;;;3.80;;
870;SDS011;422;51.280;7.236;2023-05-24T00:22:21;13.83;;;4.10;;
870;SDS011;422;51.280;7.236;2023-05-24T00:24:50;9.40;;;4.10;;
870;SDS011;422;51.280;7.236;2023-05-24T00:27:17;8.53;;;4.00;;
870;SDS011;422;51.280;7.236;2023-05-24T00:29:44;12.40;;;3.93;;
870;SDS011;422;51.280;7.236;2023-05-24T00:32:11;11.53;;;5.03;;
870;SDS011;422;51.280;7.236;2023-05-24T00:34:38;8.40;;;3.87;;
870;SDS011;422;51.280;7.236;2023-05-24T00:37:06;10.30;;;3.80;;
870;SDS011;422;51.280;7.236;2023-05-24T00:39:33;9.90;;;4.70;;
870;SDS011;422;51.280;7.236;2023-05-24T00:42:02;13.83;;;3.70;;
870;SDS011;422;51.280;7.236;2023-05-24T00:44:29;9.13;;;4.17;;
870;SDS011;422;51.280;7.236;2023-05-24T00:46:57;17.00;;;4.67;;
870;SDS011;422;51.280;7.236;2023-05-24T00:49:24;12.23;;;4.00;;
870;SDS011;422;51.280;7.236;2023-05-24T00:51:52;6.77;;;4.50;;
870;SDS011;422;51.280;7.236;2023-05-24T00:54:19;9.40;;;4.40;;
870;SDS011;422;51.280;7.236;2023-05-24T00:56:47;12.47;;;4.43;;
870;SDS011;422;51.280;7.236;2023-05-24T00:59:15;12.13;;;3.77;;
870;SDS011;422;51.280;7.236;2023-05-24T01:01:43;13.50;;;4.80;;
870;SDS011;422;51.280;7.236;2023-05-24T01:04:11;11.47;;;4.57;;
870;SDS011;422;51.280;7.236;2023-05-24T01:06:41;14.80;;;4.10;;
870;SDS011;422;51.280;7.236;2023-05-24T01:09:17;5.90;;;3.87;;
870;SDS011;422;51.280;7.236;2023-05-24T01:11:54;8.90;;;3.53;;
870;SDS011;422;51.280;7.236;2023-05-24T01:14:33;10.20;;;4.33;;
870;SDS011;422;51.280;7.236;2023-05-24T01:17:08;12.87;;;4.93;;
870;SDS011;422;51.280;7.236;2023-05-24T01:19:50;11.00;;;3.90;;
870;SDS011;422;51.280;7.236;2023-05-24T01:28:43;7.70;;;4.17;;
870;SDS011;422;51.280;7.236;2023-05-24T01:31:11;15.03;;;4.77;;
870;SDS011;422;51.280;7.236;2023-05-24T01:33:40;10.97;;;5.10;;
870;SDS011;422;51.280;7.236;2023-05-24T01:36:08;9.53;;;4.27;;
870;SDS011;422;51.280;7.236;2023-05-24T01:38:35;10.80;;;5.73;;
870;SDS011;422;51.280;7.236;2023-05-24T01:41:04;8.50;;;4.27;;
870;SDS011;422;51.280;7.236;2023-05-24T01:43:42;7.77;;;3.90;;
870;SDS011;422;51.280;7.236;2023-05-24T01:46:18;12.63;;;4.27;;
870;SDS011;422;51.280;7.236;2023-05-24T01:48:52;7.50;;;4.00;;
870;SDS011;422;51.280;7.236;2023-05-24T01:51:25;9.67;;;4.40;;
870;SDS011;422;51.280;7.236;2023-05-24T01:53:57;12.70;;;4.47;;
870;SDS011;422;51.280;7.236;2023-05-24T01:56:26;13.17;;;4.63;;
870;SDS011;422;51.280;7.236;2023-05-24T01:58:56;6.70;;;3.70;;
870;SDS011;422;51.280;7.236;2023-05-24T02:01:25;9.40;;;4.30;;
870;SDS011;422;51.280;7.236;2023-05-24T02:03:52;11.50;;;4.23;;
870;SDS011;422;51.280;7.236;2023-05-24T02:06:20;8.60;;;4.33;;
870;SDS011;422;51.280;7.236;2023-05-24T02:08:47;6.40;;;3.93;;
870;SDS011;422;51.280;7.236;2023-05-24T02:11:16;10.57;;;4.70;;
870;SDS011;422;51.280;7.236;2023-05-24T02:13:43;13.63;;;4.40;;
870;SDS011;422;51.280;7.236;2023-05-24T02:16:12;10.40;;;4.23;;
870;SDS011;422;51.280;7.236;2023-05-24T02:18:39;10.60;;;4.00;;
870;SDS011;422;51.280;7.236;2023-05-24T02:21:10;8.63;;;4.10;;
870;SDS011;422;51.280;7.236;2023-05-24T02:23:38;12.57;;;4.70;;
870;SDS011;422;51.280;7.236;2023-05-24T02:26:05;17.17;;;5.13;;
870;SDS011;422;51.280;7.236;2023-05-24T02:28:35;11.30;;;4.57;;
870;SDS011;422;51.280;7.236;2023-05-24T02:31:02;11.97;;;4.80;;
870;SDS011;422;51.280;7.236;2023-05-24T02:33:31;9.77;;;4.60;;
870;SDS011;422;51.280;7.236;2023-05-24T02:35:59;8.77;;;4.03;;
870;SDS011;422;51.280;7.236;2023-05-24T02:38:26;6.40;;;4.13;;
870;SDS011;422;51.280;7.236;2023-05-24T02:40:53;11.07;;;4.67;;
870;SDS011;422;51.280;7.236;2023-05-24T02:43:20;9.53;;;4.07;;
870;SDS011;422;51.280;7.236;2023-05-24T02:45:47;12.90;;;3.93;;
870;SDS011;422;51.280;7.236;2023-05-24T02:48:14;7.80;;;3.90;;
870;SDS011;422;51.280;7.236;2023-05-24T02:50:43;10.10;;;4.10;;
870;SDS011;422;51.280;7.236;2023-05-24T02:53:10;8.83;;;4.20;;
870;SDS011;422;51.280;7.236;2023-05-24T02:55:37;10.20;;;4.77;;
870;SDS011;422;51.280;7.236;2023-05-24T02:58:04;15.70;;;5.17;;
870;SDS011;422;51.280;7.236;2023-05-24T03:00:32;11.30;;;4.17;;
870;SDS011;422;51.280;7.236;2023-05-24T03:03:00;11.90;;;4.50;;
870;SDS011;422;51.280;7.236;2023-05-24T03:05:27;9.10;;;4.63;;
870;SDS011;422;51.280;7.236;2023-05-24T03:07:56;7.93;;;4.70;;
870;SDS011;422;51.280;7.236;2023-05-24T03:10:23;7.30;;;4.63;;
870;SDS011;422;51.280;7.236;2023-05-24T03:12:50;11.20;;;4.83;;
870;SDS011;422;51.280;7.236;2023-05-24T03:15:18;10.30;;;4.23;;
870;SDS011;422;51.280;7.236;2023-05-24T03:17:45;13.40;;;5.13;;
870;SDS011;422;51.280;7.236;2023-05-24T03:20:12;13.23;;;5.10;;
870;SDS011;422;51.280;7.236;2023-05-24T03:22:40;13.07;;;4.97;;
870;SDS011;422;51.280;7.236;2023-05-24T03:25:08;13.10;;;4.67;;
870;SDS011;422;51.280;7.236;2023-05-24T03:27:39;11.70;;;4.77;;
870;SDS011;422;51.280;7.236;2023-05-24T03:30:07;14.43;;;5.10;;
870;SDS011;422;51.280;7.236;2023-05-24T03:32:35;9.83;;;4.27;;
870;SDS011;422;51.280;7.236;2023-05-24T03:35:02;8.27;;;4.03;;
870;SDS011;422;51.280;7.236;2023-05-24T03:37:29;13.57;;;5.13;;
870;SDS011;422;51.280;7.236;2023-05-24T03:39:56;10.63;;;5.20;;
870;SDS011;422;51.280;7.236;2023-05-24T03:42:24;12.70;;;5.30;;
870;SDS011;422;51.280;7.236;2023-05-24T03:44:51;14.63;;;5.00;;
870;SDS011;422;51.280;7.236;2023-05-24T03:47:19;9.97;;;4.73;;
870;SDS011;422;51.280;7.236;2023-05-24T03:49:46;10.80;;;4.67;;
870;SDS011;422;51.280;7.236;2023-05-24T03:52:13;15.27;;;4.83;;
870;SDS011;422;51.280;7.236;2023-05-24T03:54:40;14.80;;;4.73;;
870;SDS011;422;51.280;7.236;2023-05-24T03:57:07;11.40;;;4.70;;
870;SDS011;422;51.280;7.236;2023-05-24T03:59:36;10.30;;;5.30;;
870;SDS011;422;51.280;7.236;2023-05-24T04:02:03;9.70;;;4.90;;
870;SDS011;422;51.280;7.236;2023-05-24T04:04:30;9.23;;;5.03;;
870;SDS011;422;51.280;7.236;2023-05-24T04:07:00;10.47;;;5.73;;
870;SDS011;422;51.280;7.236;2023-05-24T04:09:27;9.80;;;4.73;;
870;SDS011;422;51.280;7.236;2023-05-24T04:11:55;14.63;;;5.80;;
870;SDS011;422;51.280;7.236;2023-05-24T04:14:22;12.27;;;5.13;;
870;SDS011;422;51.280;7.236;2023-05-24T04:16:50;11.37;;;5.10;;
870;SDS011;422;51.280;7.236;2023-05-24T04:19:19;8.60;;;4.90;;
870;SDS011;422;51.280;7.236;2023-05-24T04:21:46;10.50;;;5.00;;
870;SDS011;422;51.280;7.236;2023-05-24T04:24:13;11.30;;;6.97;;
870;SDS011;422;51.280;7.236;2023-05-24T04:26:40;9.43;;;5.70;;
870;SDS011;422;51.280;7.236;2023-05-24T04:29:08;11.33;;;5.27;;
870;SDS011;422;51.280;7.236;2023-05-24T04:31:36;17.20;;;5.30;;
870;SDS011;422;51.280;7.236;2023-05-24T04:34:05;10.80;;;5.87;;
870;SDS011;422;51.280;7.236;2023-05-24T04:36:34;9.13;;;5.67;;
870;SDS011;422;51.280;7.236;2023-05-24T04:39:01;10.00;;;5.47;;
870;SDS011;422;51.280;7.236;2023-05-24T04:41:29;23.00;;;5.63;;
870;SDS011;422;51.280;7.236;2023-05-24T04:43:57;17.10;;;6.70;;
870;SDS011;422;51.280;7.236;2023-05-24T04:46:24;12.20;;;6.83;;
870;SDS011;422;51.280;7.236;2023-05-24T04:48:52;14.83;;;5.93;;
870;SDS011;422;51.280;7.236;2023-05-24T04:51:20;15.80;;;5.77;;
870;SDS011;422;51.280;7.236;2023-05-24T04:53:48;16.57;;;6.43;;
870;SDS011;422;51.280;7.236;2023-05-24T04:56:15;11.27;;;6.23;;
870;SDS011;422;51.280;7.236;2023-05-24T04:58:43;16.10;;;7.37;;
870;SDS011;422;51.280;7.236;2023-05-24T05:01:11;17.80;;;7.30;;
870;SDS011;422;51.280;7.236;2023-05-24T05:03:38;14.20;;;6.13;;
870;SDS011;422;51.280;7.236;2023-05-24T05:06:05;10.57;;;6.37;;
870;SDS011;422;51.280;7.236;2023-05-24T05:08:34;12.63;;;6.13;;
870;SDS011;422;51.280;7.236;2023-05-24T05:11:01;11.63;;;5.77;;
870;SDS011;422;51.280;7.236;2023-05-24T05:13:28;10.20;;;6.13;;
870;SDS011;422;51.280;7.236;2023-05-24T05:15:55;19.07;;;6.67;;
870;SDS011;422;51.280;7.236;2023-05-24T05:18:23;17.00;;;6.80;;
870;SDS011;422;51.280;7.236;2023-05-24T05:20:50;17.50;;;6.87;;
870;SDS011;422;51.280;7.236;2023-05-24T05:23:17;19.53;;;8.20;;
870;SDS011;422;51.280;7.236;2023-05-24T05:25:45;14.60;;;7.27;;
870;SDS011;422;51.280;7.236;2023-05-24T05:28:12;17.33;;;7.00;;
870;SDS011;422;51.280;7.236;2023-05-24T05:30:39;14.33;;;6.57;;
870;SDS011;422;51.280;7.236;2023-05-24T05:33:07;27.07;;;7.73;;
870;SDS011;422;51.280;7.236;2023-05-24T05:35:34;17.37;;;6.60;;
870;SDS011;422;51.280;7.236;2023-05-24T05:38:01;17.87;;;7.17;;
870;SDS011;422;51.280;7.236;2023-05-24T05:40:28;15.97;;;7.20;;
870;SDS011;422;51.280;7.236;2023-05-24T05:42:56;16.20;;;6.93;;
870;SDS011;422;51.280;7.236;2023-05-24T05:45:23;16.90;;;8.73;;
870;SDS011;422;51.280;7.236;2023-05-24T05:47:50;18.57;;;9.70;;
870;SDS011;422;51.280;7.236;2023-05-24T05:50:18;20.27;;;7.67;;
870;SDS011;422;51.280;7.236;2023-05-24T05:52:45;23.50;;;7.23;;
870;SDS011;422;51.280;7.236;2023-05-24T05:55:12;12.60;;;6.47;;
870;SDS011;422;51.280;7.236;2023-05-24T05:57:39;21.60;;;6.97;;
870;SDS011;422;51.280;7.236;2023-05-24T06:00:09;16.80;;;6.43;;
870;SDS011;422;51.280;7.236;2023-05-24T06:02:36;15.17;;;6.53;;
870;SDS011;422;51.280;7.236;2023-05-24T06:05:05;16.17;;;7.60;;
870;SDS011;422;51.280;7.236;2023-05-24T06:07:33;15.10;;;6.43;;
870;SDS011;422;51.280;7.236;2023-05-24T06:10:01;17.40;;;5.40;;
870;SDS011;422;51.280;7.236;2023-05-24T06:12:28;11.40;;;5.77;;
870;SDS011;422;51.280;7.236;2023-05-24T06:14:56;22.37;;;8.00;;
870;SDS011;422;51.280;7.236;2023-05-24T06:17:25;20.57;;;6.07;;
870;SDS011;422;51.280;7.236;2023-05-24T06:19:53;13.33;;;5.83;;
870;SDS011;422;51.280;7.236;2023-05-24T06:22:20;17.40;;;6.90;;
870;SDS011;422;51.280;7.236;2023-05-24T06:24:47;17.93;;;5.90;;
870;SDS011;422;51.280;7.236;2023-05-24T06:27:14;21.67;;;6.47;;
870;SDS011;422;51.280;7.236;2023-05-24T06:29:41;18.77;;;6.60;;
870;SDS011;422;51.280;7.236;2023-05-24T06:32:08;17.13;;;6.73;;
870;SDS011;422;51.280;7.236;2023-05-24T06:34:37;18.53;;;6.90;;
870;SDS011;422;51.280;7.236;2023-05-24T06:37:04;19.30;;;5.63;;
870;SDS011;422;51.280;7.236;2023-05-24T06:39:34;21.50;;;6.67;;
870;SDS011;422;51.280;7.236;2023-05-24T06:42:01;17.70;;;6.53;;
870;SDS011;422;51.280;7.236;2023-05-24T06:44:29;16.00;;;6.00;;
870;SDS011;422;51.280;7.236;2023-05-24T06:46:58;16.03;;;6.37;;
870;SDS011;422;51.280;7.236;2023-05-24T06:49:26;15.60;;;5.90;;
870;SDS011;422;51.280;7.236;2023-05-24T06:51:55;18.67;;;5.90;;
870;SDS011;422;51.280;7.236;2023-05-24T06:54:22;21.60;;;7.33;;
870;SDS011;422;51.280;7.236;2023-05-24T06:56:49;22.77;;;6.30;;
870;SDS011;422;51.280;7.236;2023-05-24T06:59:16;16.70;;;6.63;;
870;SDS011;422;51.280;7.236;2023-05-24T07:01:43;14.73;;;5.30;;
870;SDS011;422;51.280;7.236;2023-05-24T07:04:13;16.30;;;5.87;;
870;SDS011;422;51.280;7.236;2023-05-24T07:06:40;11.10;;;5.80;;
870;SDS011;422;51.280;7.236;2023-05-24T07:09:09;14.00;;;5.40;;
870;SDS011;422;51.280;7.236;2023-05-24T07:11:36;14.60;;;6.33;;
870;SDS011;422;51.280;7.236;2023-05-24T07:14:03;11.67;;;6.43;;
870;SDS011;422;51.280;7.236;2023-05-24T07:16:30;16.27;;;5.50;;
870;SDS011;422;51.280;7.236;2023-05-24T07:18:57;10.60;;;6.07;;
870;SDS011;422;51.280;7.236;2023-05-24T07:21:25;18.00;;;5.93;;
870;SDS011;422;51.280;7.236;2023-05-24T07:23:52;15.13;;;6.17;;
870;SDS011;422;51.280;7.236;2023-05-24T07:26:20;13.47;;;6.30;;
870;SDS011;422;51.280;7.236;2023-05-24T07:28:48;13.57;;;6.50;;
870;SDS011;422;51.280;7.236;2023-05-24T07:31:15;14.77;;;6.77;;
870;SDS011;422;51.280;7.236;2023-05-24T07:33:42;14.17;;;6.10;;
870;SDS011;422;51.280;7.236;2023-05-24T07:36:10;15.37;;;6.03;;
870;SDS011;422;51.280;7.236;2023-05-24T07:38:37;15.37;;;5.30;;
870;SDS011;422;51.280;7.236;2023-05-24T07:41:05;12.50;;;6.60;;
870;SDS011;422;51.280;7.236;2023-05-24T07:43:34;12.30;;;5.50;;
870;SDS011;422;51.280;7.236;2023-05-24T07:46:02;18.93;;;6.23;;
870;SDS011;422;51.280;7.236;2023-05-24T07:48:29;17.50;;;6.90;;
870;SDS011;422;51.280;7.236;2023-05-24T07:50:57;11.93;;;5.87;;
870;SDS011;422;51.280;7.236;2023-05-24T07:53:24;14.17;;;5.40;;
870;SDS011;422;51.280;7.236;2023-05-24T07:55:51;18.00;;;6.07;;
870;SDS011;422;51.280;7.236;2023-05-24T07:58:19;10.63;;;5.23;;
870;SDS011;422;51.280;7.236;2023-05-24T08:00:47;13.00;;;5.60;;
870;SDS011;422;51.280;7.236;2023-05-24T08:03:15;13.70;;;6.53;;
870;SDS011;422;51.280;7.236;2023-05-24T08:05:42;12.90;;;6.27;;
870;SDS011;422;51.280;7.236;2023-05-24T08:08:09;18.07;;;5.40;;
870;SDS011;422;51.280;7.236;2023-05-24T08:10:36;10.60;;;5.67;;
870;SDS011;422;51.280;7.236;2023-05-24T08:13:04;15.17;;;6.60;;
870;SDS011;422;51.280;7.236;2023-05-24T08:15:31;18.27;;;5.23;;
870;SDS011;422;51.280;7.236;2023-05-24T08:17:59;14.00;;;5.17;;
870;SDS011;422;51.280;7.236;2023-05-24T08:20:26;11.73;;;5.10;;
870;SDS011;422;51.280;7.236;2023-05-24T08:22:53;9.53;;;5.00;;
870;SDS011;422;51.280;7.236;2023-05-24T08:25:21;10.33;;;4.60;;
870;SDS011;422;51.280;7.236;2023-05-24T08:27:48;11.43;;;4.93;;
870;SDS011;422;51.280;7.236;2023-05-24T08:30:16;14.60;;;5.87;;
870;SDS011;422;51.280;7.236;2023-05-24T08:32:44;10.37;;;4.60;;
870;SDS011;422;51.280;7.236;2023-05-24T08:35:12;12.20;;;6.07;;
870;SDS011;422;51.280;7.236;2023-05-24T08:37:40;10.13;;;5.70;;
870;SDS011;422;51.280;7.236;2023-05-24T08:40:07;15.20;;;5.77;;
870;SDS011;422;51.280;7.236;2023-05-24T08:42:35;12.40;;;5.70;;
870;SDS011;422;51.280;7.236;2023-05-24T08:45:07;20.93;;;5.77;;
870;SDS011;422;51.280;7.236;2023-05-24T08:47:36;16.63;;;5.63;;
870;SDS011;422;51.280;7.236;2023-05-24T08:50:04;18.20;;;6.70;;
870;SDS011;422;51.280;7.236;2023-05-24T08:52:34;13.20;;;5.63;;
870;SDS011;422;51.280;7.236;2023-05-24T08:55:01;10.63;;;5.40;;
870;SDS011;422;51.280;7.236;2023-05-24T08:57:30;14.23;;;5.20;;
870;SDS011;422;51.280;7.236;2023-05-24T08:59:58;16.23;;;6.90;;
870;SDS011;422;51.280;7.236;2023-05-24T09:02:26;11.10;;;5.37;;
870;SDS011;422;51.280;7.236;2023-05-24T09:04:53;16.30;;;5.30;;
870;SDS011;422;51.280;7.236;2023-05-24T09:07:21;15.57;;;6.43;;
870;SDS011;422;51.280;7.236;2023-05-24T09:09:52;12.73;;;5.27;;
870;SDS011;422;51.280;7.236;2023-05-24T09:12:23;12.00;;;5.23;;
870;SDS011;422;51.280;7.236;2023-05-24T09:14:55;13.43;;;5.37;;
870;SDS011;422;51.280;7.236;2023-05-24T09:17:23;11.43;;;4.87;;
870;SDS011;422;51.280;7.236;2023-05-24T09:19:51;11.93;;;5.87;;
870;SDS011;422;51.280;7.236;2023-05-24T09:22:18;10.83;;;5.20;;
870;SDS011;422;51.280;7.236;2023-05-24T09:24:51;10.50;;;4.70;;
870;SDS011;422;51.280;7.236;2023-05-24T09:27:19;11.17;;;5.40;;
870;SDS011;422;51.280;7.236;2023-05-24T09:29:47;15.17;;;5.20;;
870;SDS011;422;51.280;7.236;2023-05-24T09:32:16;11.67;;;5.83;;
870;SDS011;422;51.280;7.236;2023-05-24T09:34:46;12.23;;;5.30;;
870;SDS011;422;51.280;7.236;2023-05-24T09:37:13;10.40;;;5.60;;
870;SDS011;422;51.280;7.236;2023-05-24T09:39:42;9.77;;;5.43;;
870;SDS011;422;51.280;7.236;2023-05-24T09:42:14;12.33;;;5.43;;
870;SDS011;422;51.280;7.236;2023-05-24T09:44:45;16.90;;;6.73;;
870;SDS011;422;51.280;7.236;2023-05-24T09:47:12;10.30;;;5.10;;
870;SDS011;422;51.280;7.236;2023-05-24T09:49:40;14.17;;;6.50;;
870;SDS011;422;51.280;7.236;2023-05-24T09:52:07;13.10;;;5.37;;
870;SDS011;422;51.280;7.236;2023-05-24T09:54:38;20.00;;;5.90;;
870;SDS011;422;51.280;7.236;2023-05-24T09:57:07;10.43;;;5.50;;
870;SDS011;422;51.280;7.236;2023-05-24T09:59:38;10.07;;;5.43;;
870;SDS011;422;51.280;7.236;2023-05-24T10:02:07;12.33;;;6.87;;
870;SDS011;422;51.280;7.236;2023-05-24T10:04:35;11.33;;;6.03;;
870;SDS011;422;51.280;7.236;2023-05-24T10:07:03;14.67;;;6.30;;
870;SDS011;422;51.280;7.236;2023-05-24T10:09:31;13.57;;;5.93;;
870;SDS011;422;51.280;7.236;2023-05-24T10:12:02;7.90;;;5.80;;
870;SDS011;422;51.280;7.236;2023-05-24T10:14:31;16.70;;;6.57;;
870;SDS011;422;51.280;7.236;2023-05-24T10:17:01;10.87;;;6.00;;
870;SDS011;422;51.280;7.236;2023-05-24T10:19:30;9.70;;;5.30;;
870;SDS011;422;51.280;7.236;2023-05-24T10:21:58;13.93;;;6.03;;
870;SDS011;422;51.280;7.236;2023-05-24T10:24:28;16.40;;;6.57;;
870;SDS011;422;51.280;7.236;2023-05-24T10:26:59;16.17;;;6.60;;
870;SDS011;422;51.280;7.236;2023-05-24T10:29:32;15.30;;;6.63;;
870;SDS011;422;51.280;7.236;2023-05-24T10:32:19;13.00;;;5.90;;
870;SDS011;422;51.280;7.236;2023-05-24T10:34:49;12.70;;;5.70;;
870;SDS011;422;51.280;7.236;2023-05-24T10:37:18;10.60;;;5.90;;
870;SDS011;422;51.280;7.236;2023-05-24T10:39:45;10.50;;;6.30;;
870;SDS011;422;51.280;7.236;2023-05-24T10:42:12;16.33;;;6.47;;
870;SDS011;422;51.280;7.236;2023-05-24T10:44:41;11.77;;;6.00;;
870;SDS011;422;51.280;7.236;2023-05-24T10:47:09;13.60;;;7.03;;
870;SDS011;422;51.280;7.236;2023-05-24T10:49:46;12.03;;;8.23;;
870;SDS011;422;51.280;7.236;2023-05-24T10:52:15;12.40;;;5.70;;
870;SDS011;422;51.280;7.236;2023-05-24T10:57:29;15.40;;;4.90;;
870;SDS011;422;51.280;7.236;2023-05-24T10:59:57;11.60;;;5.50;;
870;SDS011;422;51.280;7.236;2023-05-24T11:02:58;13.47;;;6.47;;
870;SDS011;422;51.280;7.236;2023-05-24T11:05:32;11.90;;;5.40;;
870;SDS011;422;51.280;7.236;2023-05-24T11:08:00;10.80;;;5.07;;
870;SDS011;422;51.280;7.236;2023-05-24T11:10:31;11.87;;;6.30;;
870;SDS011;422;51.280;7.236;2023-05-24T11:12:59;12.73;;;5.40;;
870;SDS011;422;51.280;7.236;2023-05-24T11:15:27;14.33;;;5.83;;
870;SDS011;422;51.280;7.236;2023-05-24T11:18:13;12.30;;;5.23;;
870;SDS011;422;51.280;7.236;2023-05-24T11:20:43;14.33;;;5.73;;
870;SDS011;422;51.280;7.236;2023-05-24T11:23:10;14.20;;;5.57;;
870;SDS011;422;51.280;7.236;2023-05-24T11:25:39;14.07;;;5.80;;
870;SDS011;422;51.280;7.236;2023-05-24T11:28:07;9.30;;;5.10;;
870;SDS011;422;51.280;7.236;2023-05-24T11:30:37;13.10;;;5.47;;
870;SDS011;422;51.280;7.236;2023-05-24T11:33:12;11.37;;;4.77;;
870;SDS011;422;51.280;7.236;2023-05-24T11:35:40;15.73;;;5.40;;
870;SDS011;422;51.280;7.236;2023-05-24T11:38:10;14.10;;;6.37;;
870;SDS011;422;51.280;7.236;2023-05-24T11:40:38;11.70;;;4.60;;
870;SDS011;422;51.280;7.236;2023-05-24T11:43:09;19.03;;;7.07;;
870;SDS011;422;51.280;7.236;2023-05-24T11:45:39;11.23;;;5.40;;
870;SDS011;422;51.280;7.236;2023-05-24T11:48:08;11.50;;;5.70;;
870;SDS011;422;51.280;7.236;2023-05-24T11:50:38;13.37;;;5.90;;
870;SDS011;422;51.280;7.236;2023-05-24T11:53:10;13.20;;;6.17;;
870;SDS011;422;51.280;7.236;2023-05-24T11:55:37;11.00;;;5.00;;
870;SDS011;422;51.280;7.236;2023-05-24T11:58:06;10.83;;;4.87;;
870;SDS011;422;51.280;7.236;2023-05-24T12:00:41;17.03;;;5.30;;
870;SDS011;422;51.280;7.236;2023-05-24T12:03:08;11.93;;;4.97;;
870;SDS011;422;51.280;7.236;2023-05-24T12:05:35;15.40;;;5.50;;
870;SDS011;422;51.280;7.236;2023-05-24T12:08:03;11.23;;;6.00;;
870;SDS011;422;51.280;7.236;2023-05-24T12:10:34;12.97;;;5.70;;
870;SDS011;422;51.280;7.236;2023-05-24T12:13:02;9.90;;;5.70;;
870;SDS011;422;51.280;7.236;2023-05-24T12:15:31;9.80;;;4.63;;
870;SDS011;422;51.280;7.236;2023-05-24T12:17:58;10.97;;;5.10;;
870;SDS011;422;51.280;7.236;2023-05-24T12:20:26;14.03;;;5.90;;
870;SDS011;422;51.280;7.236;2023-05-24T12:22:54;12.13;;;5.77;;
870;SDS011;422;51.280;7.236;2023-05-24T12:25:22;11.20;;;6.70;;
870;SDS011;422;51.280;7.236;2023-05-24T12:27:53;12.03;;;6.10;;
870;SDS011;422;51.280;7.236;2023-05-24T12:30:21;12.53;;;5.43;;
870;SDS011;422;51.280;7.236;2023-05-24T12:32:49;18.13;;;5.53;;
870;SDS011;422;51.280;7.236;2023-05-24T12:35:18;14.00;;;5.67;;
870;SDS011;422;51.280;7.236;2023-05-24T12:37:46;10.70;;;5.83;;
870;SDS011;422;51.280;7.236;2023-05-24T12:40:14;10.93;;;5.30;;
870;SDS011;422;51.280;7.236;2023-05-24T12:42:44;10.83;;;5.93;;
870;SDS011;422;51.280;7.236;2023-05-24T12:45:15;14.60;;;6.17;;
870;SDS011;422;51.280;7.236;2023-05-24T12:47:47;13.90;;;5.50;;
870;SDS011;422;51.280;7.236;2023-05-24T12:50:16;11.07;;;6.27;;
870;SDS011;422;51.280;7.236;2023-05-24T12:52:43;15.37;;;6.90;;
870;SDS011;422;51.280;7.236;2023-05-24T12:55:12;13.77;;;6.33;;
870;SDS011;422;51.280;7.236;2023-05-24T12:57:39;14.60;;;7.40;;
870;SDS011;422;51.280;7.236;2023-05-24T13:00:08;9.80;;;6.13;;
870;SDS011;422;51.280;7.236;2023-05-24T13:02:38;12.50;;;5.60;;
870;SDS011;422;51.280;7.236;2023-05-24T13:05:06;11.90;;;6.73;;
870;SDS011;422;51.280;7.236;2023-05-24T13:07:34;10.53;;;5.83;;
870;SDS011;422;51.280;7.236;2023-05-24T13:10:03;14.23;;;6.17;;
870;SDS011;422;51.280;7.236;2023-05-24T13:12:31;10.47;;;5.97;;
870;SDS011;422;51.280;7.236;2023-05-24T13:14:58;13.17;;;5.23;;
870;SDS011;422;51.280;7.236;2023-05-24T13:17:25;11.53;;;6.40;;
870;SDS011;422;51.280;7.236;2023-05-24T13:19:54;10.97;;;5.37;;
870;SDS011;422;51.280;7.236;2023-05-24T13:22:21;10.07;;;5.93;;
870;SDS011;422;51.280;7.236;2023-05-24T13:24:48;12.23;;;5.67;;
870;SDS011;422;51.280;7.236;2023-05-24T13:27:15;14.10;;;7.17;;
870;SDS011;422;51.280;7.236;2023-05-24T13:29:43;19.20;;;6.27;;
870;SDS011;422;51.280;7.236;2023-05-24T13:32:10;14.47;;;6.20;;
870;SDS011;422;51.280;7.236;2023-05-24T13:34:37;17.83;;;6.33;;
870;SDS011;422;51.280;7.236;2023-05-24T13:37:05;11.90;;;5.50;;
870;SDS011;422;51.280;7.236;2023-05-24T13:39:33;12.80;;;6.40;;
870;SDS011;422;51.280;7.236;2023-05-24T13:42:00;10.50;;;5.40;;
870;SDS011;422;51.280;7.236;2023-05-24T13:44:28;18.27;;;6.73;;
870;SDS011;422;51.280;7.236;2023-05-24T13:46:56;15.17;;;6.53;;
870;SDS011;422;51.280;7.236;2023-05-24T13:49:23;16.07;;;5.57;;
870;SDS011;422;51.280;7.236;2023-05-24T13:51:51;12.80;;;5.60;;
870;SDS011;422;51.280;7.236;2023-05-24T13:54:20;11.17;;;5.83;;
870;SDS011;422;51.280;7.236;2023-05-24T13:56:47;15.57;;;6.30;;
870;SDS011;422;51.280;7.236;2023-05-24T13:59:15;12.93;;;5.80;;
870;SDS011;422;51.280;7.236;2023-05-24T14:01:42;7.33;;;4.73;;
870;SDS011;422;51.280;7.236;2023-05-24T14:04:10;14.30;;;6.37;;
870;SDS011;422;51.280;7.236;2023-05-24T14:06:37;8.07;;;5.60;;
870;SDS011;422;51.280;7.236;2023-05-24T14:09:04;11.30;;;6.17;;
870;SDS011;422;51.280;7.236;2023-05-24T14:11:34;14.80;;;7.17;;
870;SDS011;422;51.280;7.236;2023-05-24T14:14:01;10.40;;;5.93;;
870;SDS011;422;51.280;7.236;2023-05-24T14:16:28;9.80;;;5.70;;
870;SDS011;422;51.280;7.236;2023-05-24T14:18:56;16.27;;;6.53;;
870;SDS011;422;51.280;7.236;2023-05-24T14:21:23;9.90;;;5.50;;
870;SDS011;422;51.280;7.236;2023-05-24T14:23:50;13.47;;;6.10;;
870;SDS011;422;51.280;7.236;2023-05-24T14:26:18;10.90;;;5.20;;
870;SDS011;422;51.280;7.236;2023-05-24T14:28:47;9.80;;;5.43;;
870;SDS011;422;51.280;7.236;2023-05-24T14:31:15;10.00;;;5.17;;
870;SDS011;422;51.280;7.236;2023-05-24T14:33:42;9.57;;;5.00;;
870;SDS011;422;51.280;7.236;2023-05-24T14:36:09;10.10;;;5.43;;
870;SDS011;422;51.280;7.236;2023-05-24T14:38:36;12.00;;;6.10;;
870;SDS011;422;51.280;7.236;2023-05-24T14:41:03;10.30;;;5.40;;
870;SDS011;422;51.280;7.236;2023-05-24T14:43:30;13.30;;;6.47;;
870;SDS011;422;51.280;7.236;2023-05-24T14:45:59;10.83;;;7.03;;
870;SDS011;422;51.280;7.236;2023-05-24T14:48:26;12.50;;;6.60;;
870;SDS011;422;51.280;7.236;2023-05-24T14:50:53;12.07;;;6.00;;
870;SDS011;422;51.280;7.236;2023-05-24T14:53:20;11.63;;;6.20;;
870;SDS011;422;51.280;7.236;2023-05-24T14:55:48;10.83;;;6.30;;
870;SDS011;422;51.280;7.236;2023-05-24T14:58:15;13.83;;;6.27;;
870;SDS011;422;51.280;7.236;2023-05-24T15:00:42;8.70;;;6.60;;
870;SDS011;422;51.280;7.236;2023-05-24T15:03:11;9.80;;;6.77;;
870;SDS011;422;51.280;7.236;2023-05-24T15:05:39;8.30;;;5.47;;
870;SDS011;422;51.280;7.236;2023-05-24T15:08:07;14.53;;;6.30;;
870;SDS011;422;51.280;7.236;2023-05-24T15:10:35;11.23;;;6.00;;
870;SDS011;422;51.280;7.236;2023-05-24T15:13:03;14.33;;;6.37;;
870;SDS011;422;51.280;7.236;2023-05-24T15:15:30;15.97;;;6.80;;
870;SDS011;422;51.280;7.236;2023-05-24T15:17:57;13.00;;;6.47;;
870;SDS011;422;51.280;7.236;2023-05-24T15:20:26;13.17;;;5.73;;
870;SDS011;422;51.280;7.236;2023-05-24T15:22:53;11.00;;;5.47;;
870;SDS011;422;51.280;7.236;2023-05-24T15:25:21;13.37;;;6.07;;
870;SDS011;422;51.280;7.236;2023-05-24T15:27:48;11.17;;;5.60;;
870;SDS011;422;51.280;7.236;2023-05-24T15:30:17;12.03;;;6.13;;
870;SDS011;422;51.280;7.236;2023-05-24T15:32:45;9.83;;;6.20;;
870;SDS011;422;51.280;7.236;2023-05-24T15:35:12;13.80;;;7.13;;
870;SDS011;422;51.280;7.236;2023-05-24T15:37:41;14.00;;;6.90;;
870;SDS011;422;51.280;7.236;2023-05-24T15:40:09;12.83;;;6.77;;
870;SDS011;422;51.280;7.236;2023-05-24T15:42:37;11.60;;;6.37;;
870;SDS011;422;51.280;7.236;2023-05-24T15:45:05;11.47;;;5.70;;
870;SDS011;422;51.280;7.236;2023-05-24T15:47:32;11.00;;;5.90;;